sensor_id;sensor_type;location;lat;lon;timestamp;pressure;altitude;pressure_sealevel;temperature;humidity
67457;BME280;54319;52.038;4.640;2023-07-13T00:01:15;101420.34;;;16.67;100.00
67457;BME280;54319;52.038;4.640;2023-07-13T00:03:43;101430.28;;;16.68;100.00
67457;BME280;54319;52.038;4.640;2023-07-13T00:06:10;101428.38;;;16.69;100.00
67457;BME280;54319;52.038;4.640;2023-07-13T00:08:36;101421.31;;;16.61;100.00
67457;BME280;54319;52.038;4.640;2023-07-13T00:11:03;101421.19;;;16.56;100.00
67457;BME280;54319;52.038;4.640;2023-07-13T00:13:32;101425.84;;;16.55;100.00
67457;BME280;54319;52.038;4.640;2023-07-13T00:15:59;101426.56;;;16.51;100.00
67457;BME280;54319;52.038;4.640;2023-07-13T00:18:27;101421.88;;;16.51;100.00
67457;BME280;54319;52.038;4.640;2023-07-13T00:20:55;101416.16;;;16.53;100.00
67457;BME280;54319;52.038;4.640;2023-07-13T00:23:30;101419.13;;;16.51;100.00
67457;BME280;54319;52.038;4.640;2023-07-13T00:25:59;101419.72;;;16.53;100.00
67457;BME280;54319;52.038;4.640;2023-07-13T00:28:26;101432.41;;;16.54;100.00
67457;BME280;54319;52.038;4.640;2023-07-13T00:30:52;101425.34;;;16.58;100.00
67457;BME280;54319;52.038;4.640;2023-07-13T00:33:19;101429.31;;;16.51;100.00
67457;BME280;54319;52.038;4.640;2023-07-13T00:35:47;101426.22;;;16.59;100.00
67457;BME280;54319;52.038;4.640;2023-07-13T00:38:14;101375.28;;;16.26;100.00
67457;BME280;54319;52.038;4.640;2023-07-13T00:40:41;101421.88;;;16.51;100.00
67457;BME280;54319;52.038;4.640;2023-07-13T00:43:12;101397.47;;;16.43;100.00
67457;BME280;54319;52.038;4.640;2023-07-13T00:46:19;101425.13;;;16.60;100.00
67457;BME280;54319;52.038;4.640;2023-07-13T00:48:46;101424.41;;;16.53;100.00
67457;BME280;54319;52.038;4.640;2023-07-13T00:51:17;101421.41;;;16.54;100.00
67457;BME280;54319;52.038;4.640;2023-07-13T00:53:45;101421.06;;;16.51;100.00
67457;BME280;54319;52.038;4.640;2023-07-13T00:56:12;101413.50;;;16.46;100.00
67457;BME280;54319;52.038;4.640;2023-07-13T00:58:39;101432.91;;;16.51;100.00
67457;BME280;54319;52.038;4.640;2023-07-13T01:01:06;101399.81;;;16.27;100.00
67457;BME280;54319;52.038;4.640;2023-07-13T01:03:34;101431.69;;;16.47;100.00
67457;BME280;54319;52.038;4.640;2023-07-13T01:06:02;101430.50;;;16.43;100.00
67457;BME280;54319;52.038;4.640;2023-07-13T01:08:30;101441.50;;;16.43;100.00
67457;BME280;54319;52.038;4.640;2023-07-13T01:10:57;101417.56;;;16.31;100.00
67457;BME280;54319;52.038;4.640;2023-07-13T01:13:25;101432.75;;;16.34;100.00
67457;BME280;54319;52.038;4.640;2023-07-13T01:15:52;101440.78;;;16.35;100.00
67457;BME280;54319;52.038;4.640;2023-07-13T01:18:22;101433.00;;;16.32;100.00
67457;BME280;54319;52.038;4.640;2023-07-13T01:20:55;101439.59;;;16.31;100.00
67457;BME280;54319;52.038;4.640;2023-07-13T01:23:23;101441.75;;;16.29;100.00
67457;BME280;54319;52.038;4.640;2023-07-13T01:25:50;101440.66;;;16.30;100.00
67457;BME280;54319;52.038;4.640;2023-07-13T01:28:17;101447.47;;;16.28;100.00
67457;BME280;54319;52.038;4.640;2023-07-13T01:30:45;101451.53;;;16.25;100.00
67457;BME280;54319;52.038;4.640;2023-07-13T01:33:13;101451.53;;;16.25;100.00
67457;BME280;54319;52.038;4.640;2023-07-13T01:35:40;101458.34;;;16.23;100.00
67457;BME280;54319;52.038;4.640;2023-07-13T01:38:08;101441.81;;;16.11;100.00
67457;BME280;54319;52.038;4.640;2023-07-13T01:40:37;101461.19;;;16.16;100.00
67457;BME280;54319;52.038;4.640;2023-07-13T01:43:05;101455.09;;;16.14;100.00
67457;BME280;54319;52.038;4.640;2023-07-13T01:45:32;101449.31;;;16.03;100.00
67457;BME280;54319;52.038;4.640;2023-07-13T01:47:59;101467.03;;;16.08;100.00
67457;BME280;54319;52.038;4.640;2023-07-13T01:50:26;101464.50;;;16.06;100.00
67457;BME280;54319;52.038;4.640;2023-07-13T01:52:52;101462.22;;;16.03;100.00
67457;BME280;54319;52.038;4.640;2023-07-13T01:55:21;101468.59;;;16.03;100.00
67457;BME280;54319;52.038;4.640;2023-07-13T01:57:48;101447.44;;;15.85;100.00
67457;BME280;54319;52.038;4.640;2023-07-13T02:00:15;101475.16;;;16.02;100.00
67457;BME280;54319;52.038;4.640;2023-07-13T02:02:42;101456.69;;;15.91;100.00
67457;BME280;54319;52.038;4.640;2023-07-13T02:05:09;101466.78;;;15.97;100.00
67457;BME280;54319;52.038;4.640;2023-07-13T02:07:36;101468.91;;;15.95;100.00
67457;BME280;54319;52.038;4.640;2023-07-13T02:10:04;101473.09;;;15.98;100.00
67457;BME280;54319;52.038;4.640;2023-07-13T02:12:32;101468.06;;;15.95;99.19
67457;BME280;54319;52.038;4.640;2023-07-13T02:14:59;101477.63;;;15.92;99.02
67457;BME280;54319;52.038;4.640;2023-07-13T02:17:26;101470.03;;;15.87;100.00
67457;BME280;54319;52.038;4.640;2023-07-13T02:19:53;101475.41;;;15.82;99.93
67457;BME280;54319;52.038;4.640;2023-07-13T02:22:20;101460.56;;;15.83;99.49
67457;BME280;54319;52.038;4.640;2023-07-13T02:24:47;101468.31;;;15.74;99.78
67457;BME280;54319;52.038;4.640;2023-07-13T02:27:13;101464.63;;;15.81;99.51
67457;BME280;54319;52.038;4.640;2023-07-13T02:29:42;101473.94;;;15.80;99.36
67457;BME280;54319;52.038;4.640;2023-07-13T02:32:09;101454.81;;;15.73;99.16
67457;BME280;54319;52.038;4.640;2023-07-13T02:34:36;101449.72;;;15.70;99.76
67457;BME280;54319;52.038;4.640;2023-07-13T02:37:03;101464.09;;;15.72;99.65
67457;BME280;54319;52.038;4.640;2023-07-13T02:39:30;101465.88;;;15.66;100.00
67457;BME280;54319;52.038;4.640;2023-07-13T02:41:58;101467.09;;;15.70;99.83
67457;BME280;54319;52.038;4.640;2023-07-13T02:44:25;101467.41;;;15.62;100.00
67457;BME280;54319;52.038;4.640;2023-07-13T02:46:53;101468.69;;;15.59;100.00
67457;BME280;54319;52.038;4.640;2023-07-13T02:49:20;101466.81;;;15.60;100.00
67457;BME280;54319;52.038;4.640;2023-07-13T02:51:47;101469.16;;;15.56;100.00
67457;BME280;54319;52.038;4.640;2023-07-13T02:54:14;101457.94;;;15.39;100.00
67457;BME280;54319;52.038;4.640;2023-07-13T02:56:41;101468.63;;;15.47;100.00
67457;BME280;54319;52.038;4.640;2023-07-13T02:59:09;101465.19;;;15.52;100.00
67457;BME280;54319;52.038;4.640;2023-07-13T03:01:36;101470.69;;;15.52;100.00
67457;BME280;54319;52.038;4.640;2023-07-13T03:04:04;101459.41;;;15.42;100.00
67457;BME280;54319;52.038;4.640;2023-07-13T03:06:31;101467.56;;;15.48;100.00
67457;BME280;54319;52.038;4.640;2023-07-13T03:08:58;101480.22;;;15.49;100.00
67457;BME280;54319;52.038;4.640;2023-07-13T03:11:26;101479.78;;;15.53;100.00
67457;BME280;54319;52.038;4.640;2023-07-13T03:13:53;101470.91;;;15.51;100.00
67457;BME280;54319;52.038;4.640;2023-07-13T03:16:19;101487.81;;;15.54;100.00
67457;BME280;54319;52.038;4.640;2023-07-13T03:18:47;101478.72;;;15.54;100.00
67457;BME280;54319;52.038;4.640;2023-07-13T03:21:15;101481.03;;;15.57;100.00
67457;BME280;54319;52.038;4.640;2023-07-13T03:23:42;101479.09;;;15.57;100.00
67457;BME280;54319;52.038;4.640;2023-07-13T03:26:12;101465.59;;;15.56;100.00
67457;BME280;54319;52.038;4.640;2023-07-13T03:28:39;101467.72;;;15.54;100.00
67457;BME280;54319;52.038;4.640;2023-07-13T03:31:08;101476.13;;;15.59;100.00
67457;BME280;54319;52.038;4.640;2023-07-13T03:33:35;101472.78;;;15.57;100.00
67457;BME280;54319;52.038;4.640;2023-07-13T03:36:02;101478.03;;;15.58;100.00
67457;BME280;54319;52.038;4.640;2023-07-13T03:38:31;101456.09;;;15.52;100.00
67457;BME280;54319;52.038;4.640;2023-07-13T03:40:58;101487.03;;;15.66;100.00
67457;BME280;54319;52.038;4.640;2023-07-13T03:43:26;101482.97;;;15.68;100.00
67457;BME280;54319;52.038;4.640;2023-07-13T03:45:53;101482.38;;;15.66;100.00
67457;BME280;54319;52.038;4.640;2023-07-13T03:48:19;101484.88;;;15.68;100.00
67457;BME280;54319;52.038;4.640;2023-07-13T03:50:47;101491.25;;;15.68;100.00
67457;BME280;54319;52.038;4.640;2023-07-13T03:53:14;101492.66;;;15.71;100.00
67457;BME280;54319;52.038;4.640;2023-07-13T03:55:42;101454.81;;;15.54;100.00
67457;BME280;54319;52.038;4.640;2023-07-13T03:58:32;101449.38;;;15.47;100.00
67457;BME280;54319;52.038;4.640;2023-07-13T04:01:00;101489.69;;;15.72;100.00
67457;BME280;54319;52.038;4.640;2023-07-13T04:03:28;101498.94;;;15.78;100.00
67457;BME280;54319;52.038;4.640;2023-07-13T04:05:55;101504.81;;;15.82;100.00
67457;BME280;54319;52.038;4.640;2023-07-13T04:08:25;101465.13;;;15.59;100.00
67457;BME280;54319;52.038;4.640;2023-07-13T04:10:53;101502.19;;;15.87;100.00
67457;BME280;54319;52.038;4.640;2023-07-13T04:13:20;101508.88;;;15.98;100.00
67457;BME280;54319;52.038;4.640;2023-07-13T04:15:46;101503.50;;;16.03;100.00
67457;BME280;54319;52.038;4.640;2023-07-13T04:18:13;101505.09;;;16.11;100.00
67457;BME280;54319;52.038;4.640;2023-07-13T04:20:39;101501.75;;;16.09;100.00
67457;BME280;54319;52.038;4.640;2023-07-13T04:23:06;101516.38;;;16.21;100.00
67457;BME280;54319;52.038;4.640;2023-07-13T04:25:33;101504.53;;;16.20;100.00
67457;BME280;54319;52.038;4.640;2023-07-13T04:28:03;101504.91;;;16.24;100.00
67457;BME280;54319;52.038;4.640;2023-07-13T04:30:30;101510.31;;;16.31;100.00
67457;BME280;54319;52.038;4.640;2023-07-13T04:32:57;101510.91;;;16.33;100.00
67457;BME280;54319;52.038;4.640;2023-07-13T04:35:23;101515.97;;;16.36;100.00
67457;BME280;54319;52.038;4.640;2023-07-13T04:37:50;101516.56;;;16.38;100.00
67457;BME280;54319;52.038;4.640;2023-07-13T04:40:17;101523.88;;;16.44;100.00
67457;BME280;54319;52.038;4.640;2023-07-13T04:42:44;101522.09;;;16.50;100.00
67457;BME280;54319;52.038;4.640;2023-07-13T04:45:13;101521.03;;;16.51;100.00
67457;BME280;54319;52.038;4.640;2023-07-13T04:47:41;101522.22;;;16.55;100.00
67457;BME280;54319;52.038;4.640;2023-07-13T04:50:09;101529.81;;;16.60;100.00
67457;BME280;54319;52.038;4.640;2023-07-13T04:52:36;101534.44;;;16.59;100.00
67457;BME280;54319;52.038;4.640;2023-07-13T04:55:04;101533.97;;;16.62;100.00
67457;BME280;54319;52.038;4.640;2023-07-13T04:57:31;101523.44;;;16.59;100.00
67457;BME280;54319;52.038;4.640;2023-07-13T04:59:58;101531.81;;;16.64;100.00
67457;BME280;54319;52.038;4.640;2023-07-13T05:02:34;101542.41;;;16.68;100.00
67457;BME280;54319;52.038;4.640;2023-07-13T05:05:01;101527.88;;;16.60;100.00
67457;BME280;54319;52.038;4.640;2023-07-13T05:07:29;101529.66;;;16.67;100.00
67457;BME280;54319;52.038;4.640;2023-07-13T05:09:58;101532.06;;;16.63;100.00
67457;BME280;54319;52.038;4.640;2023-07-13T05:12:25;101531.81;;;16.64;100.00
67457;BME280;54319;52.038;4.640;2023-07-13T05:14:51;101538.09;;;16.72;100.00
67457;BME280;54319;52.038;4.640;2023-07-13T05:17:18;101537.63;;;16.75;100.00
67457;BME280;54319;52.038;4.640;2023-07-13T05:19:46;101545.78;;;16.93;100.00
67457;BME280;54319;52.038;4.640;2023-07-13T05:22:13;101543.53;;;17.02;100.00
67457;BME280;54319;52.038;4.640;2023-07-13T05:24:39;101541.28;;;17.11;100.00
67457;BME280;54319;52.038;4.640;2023-07-13T05:27:06;101547.03;;;17.21;100.00
67457;BME280;54319;52.038;4.640;2023-07-13T05:29:33;101549.41;;;17.30;100.00
67457;BME280;54319;52.038;4.640;2023-07-13T05:31:59;101552.88;;;17.37;100.00
67457;BME280;54319;52.038;4.640;2023-07-13T05:34:26;101549.91;;;17.50;100.00
67457;BME280;54319;52.038;4.640;2023-07-13T05:36:54;101545.41;;;17.61;100.00
67457;BME280;54319;52.038;4.640;2023-07-13T05:39:21;101545.16;;;17.75;100.00
67457;BME280;54319;52.038;4.640;2023-07-13T05:41:48;101556.31;;;17.80;100.00
67457;BME280;54319;52.038;4.640;2023-07-13T05:44:14;101543.13;;;17.70;99.21
67457;BME280;54319;52.038;4.640;2023-07-13T05:46:41;101563.41;;;17.76;98.42
67457;BME280;54319;52.038;4.640;2023-07-13T05:49:08;101558.97;;;17.75;97.57
67457;BME280;54319;52.038;4.640;2023-07-13T05:51:34;101560.28;;;17.72;97.00
67457;BME280;54319;52.038;4.640;2023-07-13T05:54:02;101563.75;;;17.79;96.53
67457;BME280;54319;52.038;4.640;2023-07-13T05:56:29;101568.81;;;17.83;95.71
67457;BME280;54319;52.038;4.640;2023-07-13T05:58:56;101574.53;;;17.93;95.89
67457;BME280;54319;52.038;4.640;2023-07-13T06:01:23;101566.16;;;17.88;95.43
67457;BME280;54319;52.038;4.640;2023-07-13T06:03:49;101520.34;;;17.63;95.38
67457;BME280;54319;52.038;4.640;2023-07-13T06:06:16;101577.88;;;17.95;96.18
67457;BME280;54319;52.038;4.640;2023-07-13T06:08:43;101573.53;;;17.99;95.86
67457;BME280;54319;52.038;4.640;2023-07-13T06:11:14;101580.06;;;18.05;96.74
67457;BME280;54319;52.038;4.640;2023-07-13T06:13:41;101590.69;;;18.13;100.00
67457;BME280;54319;52.038;4.640;2023-07-13T06:16:08;101584.13;;;18.02;100.00
67457;BME280;54319;52.038;4.640;2023-07-13T06:18:35;101600.88;;;18.13;100.00
67457;BME280;54319;52.038;4.640;2023-07-13T06:21:06;101605.00;;;17.98;100.00
67457;BME280;54319;52.038;4.640;2023-07-13T06:23:35;101602.63;;;17.66;100.00
67457;BME280;54319;52.038;4.640;2023-07-13T06:26:02;101607.09;;;17.43;98.39
67457;BME280;54319;52.038;4.640;2023-07-13T06:28:31;101618.72;;;17.21;99.57
67457;BME280;54319;52.038;4.640;2023-07-13T06:30:58;101603.44;;;16.95;99.07
67457;BME280;54319;52.038;4.640;2023-07-13T06:33:26;101618.84;;;16.84;100.00
67457;BME280;54319;52.038;4.640;2023-07-13T06:35:52;101618.28;;;16.63;100.00
67457;BME280;54319;52.038;4.640;2023-07-13T06:38:19;101626.41;;;16.58;100.00
67457;BME280;54319;52.038;4.640;2023-07-13T06:40:46;101624.00;;;16.50;100.00
67457;BME280;54319;52.038;4.640;2023-07-13T06:43:13;101614.44;;;16.53;100.00
67457;BME280;54319;52.038;4.640;2023-07-13T06:45:43;101622.59;;;16.59;100.00
67457;BME280;54319;52.038;4.640;2023-07-13T06:48:11;101624.41;;;16.66;100.00
67457;BME280;54319;52.038;4.640;2023-07-13T06:50:38;101628.53;;;16.75;100.00
67457;BME280;54319;52.038;4.640;2023-07-13T06:53:04;101622.91;;;16.82;100.00
67457;BME280;54319;52.038;4.640;2023-07-13T06:55:31;101606.38;;;16.82;100.00
67457;BME280;54319;52.038;4.640;2023-07-13T06:57:58;101629.22;;;17.01;100.00
67457;BME280;54319;52.038;4.640;2023-07-13T07:00:24;101631.75;;;17.02;100.00
67457;BME280;54319;52.038;4.640;2023-07-13T07:02:52;101639.56;;;17.17;100.00
67457;BME280;54319;52.038;4.640;2023-07-13T07:05:19;101634.78;;;17.25;100.00
67457;BME280;54319;52.038;4.640;2023-07-13T07:07:47;101624.09;;;17.40;99.39
67457;BME280;54319;52.038;4.640;2023-07-13T07:10:13;101621.00;;;17.60;98.62
67457;BME280;54319;52.038;4.640;2023-07-13T07:12:40;101608.28;;;17.71;97.78
67457;BME280;54319;52.038;4.640;2023-07-13T07:15:07;101586.69;;;17.68;99.42
67457;BME280;54319;52.038;4.640;2023-07-13T07:17:34;101626.38;;;18.03;99.55
67457;BME280;54319;52.038;4.640;2023-07-13T07:20:03;101616.75;;;18.05;98.62
67457;BME280;54319;52.038;4.640;2023-07-13T07:22:30;101625.25;;;18.16;98.42
67457;BME280;54319;52.038;4.640;2023-07-13T07:24:56;101629.47;;;18.18;96.62
67457;BME280;54319;52.038;4.640;2023-07-13T07:27:23;101634.25;;;18.23;95.36
67457;BME280;54319;52.038;4.640;2023-07-13T07:29:50;101638.59;;;18.19;97.01
67457;BME280;54319;52.038;4.640;2023-07-13T07:32:17;101634.88;;;18.13;95.29
67457;BME280;54319;52.038;4.640;2023-07-13T07:34:43;101640.97;;;18.27;91.48
67457;BME280;54319;52.038;4.640;2023-07-13T07:37:13;101634.75;;;18.20;89.42
67457;BME280;54319;52.038;4.640;2023-07-13T07:39:40;101644.13;;;18.19;90.41
67457;BME280;54319;52.038;4.640;2023-07-13T07:42:07;101626.41;;;18.32;89.62
67457;BME280;54319;52.038;4.640;2023-07-13T07:44:34;101641.78;;;18.98;89.90
67457;BME280;54319;52.038;4.640;2023-07-13T07:47:00;101658.91;;;19.68;89.18
67457;BME280;54319;52.038;4.640;2023-07-13T07:49:27;101649.25;;;20.27;82.09
67457;BME280;54319;52.038;4.640;2023-07-13T07:51:54;101643.75;;;20.82;78.97
67457;BME280;54319;52.038;4.640;2023-07-13T07:54:22;101646.06;;;20.90;77.50
67457;BME280;54319;52.038;4.640;2023-07-13T07:56:49;101652.25;;;20.98;76.50
67457;BME280;54319;52.038;4.640;2023-07-13T07:59:16;101641.75;;;21.05;73.57
67457;BME280;54319;52.038;4.640;2023-07-13T08:01:42;101649.38;;;20.87;74.42
67457;BME280;54319;52.038;4.640;2023-07-13T08:04:11;101655.03;;;20.48;76.26
67457;BME280;54319;52.038;4.640;2023-07-13T08:06:38;101658.00;;;20.19;78.66
67457;BME280;54319;52.038;4.640;2023-07-13T08:09:05;101660.44;;;19.93;78.89
67457;BME280;54319;52.038;4.640;2023-07-13T08:11:33;101659.09;;;19.78;79.34
67457;BME280;54319;52.038;4.640;2023-07-13T08:13:59;101663.97;;;19.71;82.58
67457;BME280;54319;52.038;4.640;2023-07-13T08:16:26;101660.03;;;19.50;82.01
67457;BME280;54319;52.038;4.640;2023-07-13T08:18:53;101668.53;;;19.43;84.23
67457;BME280;54319;52.038;4.640;2023-07-13T08:21:20;101653.38;;;19.68;82.31
67457;BME280;54319;52.038;4.640;2023-07-13T08:23:47;101659.34;;;19.94;78.86
67457;BME280;54319;52.038;4.640;2023-07-13T08:26:14;101659.63;;;20.37;74.17
67457;BME280;54319;52.038;4.640;2023-07-13T08:28:42;101661.19;;;21.05;70.33
67457;BME280;54319;52.038;4.640;2023-07-13T08:31:09;101659.47;;;21.36;70.80
67457;BME280;54319;52.038;4.640;2023-07-13T08:33:36;101653.50;;;21.93;70.88
67457;BME280;54319;52.038;4.640;2023-07-13T08:36:04;101654.06;;;21.95;66.81
67457;BME280;54319;52.038;4.640;2023-07-13T08:38:31;101657.88;;;21.78;66.21
67457;BME280;54319;52.038;4.640;2023-07-13T08:40:58;101666.63;;;21.27;67.78
67457;BME280;54319;52.038;4.640;2023-07-13T08:43:32;101643.16;;;20.52;68.72
67457;BME280;54319;52.038;4.640;2023-07-13T08:46:23;101669.09;;;20.19;70.81
67457;BME280;54319;52.038;4.640;2023-07-13T08:48:57;101670.75;;;19.80;72.70
67457;BME280;54319;52.038;4.640;2023-07-13T08:51:33;101681.84;;;19.46;74.97
67457;BME280;54319;52.038;4.640;2023-07-13T08:54:04;101680.59;;;19.37;75.12
67457;BME280;54319;52.038;4.640;2023-07-13T08:56:32;101678.34;;;19.17;76.79
67457;BME280;54319;52.038;4.640;2023-07-13T08:59:01;101678.72;;;19.08;77.64
67457;BME280;54319;52.038;4.640;2023-07-13T09:01:45;101667.50;;;18.86;77.76
67457;BME280;54319;52.038;4.640;2023-07-13T09:04:16;101680.16;;;18.82;77.65
67457;BME280;54319;52.038;4.640;2023-07-13T09:06:55;101681.88;;;18.71;79.80
67457;BME280;54319;52.038;4.640;2023-07-13T09:09:37;101676.34;;;18.71;79.15
67457;BME280;54319;52.038;4.640;2023-07-13T09:12:13;101682.81;;;18.77;79.59
67457;BME280;54319;52.038;4.640;2023-07-13T09:14:47;101676.97;;;18.90;80.42
67457;BME280;54319;52.038;4.640;2023-07-13T09:17:18;101685.19;;;19.31;79.33
67457;BME280;54319;52.038;4.640;2023-07-13T09:19:51;101676.88;;;19.83;77.80
67457;BME280;54319;52.038;4.640;2023-07-13T09:22:21;101684.59;;;20.20;75.51
67457;BME280;54319;52.038;4.640;2023-07-13T09:24:55;101686.63;;;20.47;73.02
67457;BME280;54319;52.038;4.640;2023-07-13T09:27:30;101689.44;;;20.52;71.23
67457;BME280;54319;52.038;4.640;2023-07-13T09:30:12;101693.97;;;20.36;69.43
67457;BME280;54319;52.038;4.640;2023-07-13T09:32:50;101701.81;;;20.22;70.27
67457;BME280;54319;52.038;4.640;2023-07-13T09:35:20;101686.06;;;19.88;72.93
67457;BME280;54319;52.038;4.640;2023-07-13T09:37:48;101705.13;;;20.02;73.75
67457;BME280;54319;52.038;4.640;2023-07-13T09:40:21;101697.66;;;20.02;73.57
67457;BME280;54319;52.038;4.640;2023-07-13T09:42:51;101709.59;;;20.03;75.24
67457;BME280;54319;52.038;4.640;2023-07-13T09:45:27;101710.03;;;19.94;75.75
67457;BME280;54319;52.038;4.640;2023-07-13T09:48:04;101706.81;;;19.86;74.42
67457;BME280;54319;52.038;4.640;2023-07-13T09:50:31;101717.16;;;19.73;73.71
67457;BME280;54319;52.038;4.640;2023-07-13T09:52:57;101712.44;;;19.91;73.49
67457;BME280;54319;52.038;4.640;2023-07-13T09:55:29;101718.34;;;19.94;74.00
67457;BME280;54319;52.038;4.640;2023-07-13T09:57:57;101713.41;;;20.19;74.34
67457;BME280;54319;52.038;4.640;2023-07-13T10:00:26;101723.31;;;20.15;73.60
67457;BME280;54319;52.038;4.640;2023-07-13T10:03:01;101719.53;;;20.21;74.23
67457;BME280;54319;52.038;4.640;2023-07-13T10:05:37;101724.63;;;20.29;76.09
67457;BME280;54319;52.038;4.640;2023-07-13T10:08:04;101732.34;;;20.72;74.88
67457;BME280;54319;52.038;4.640;2023-07-13T10:10:32;101725.34;;;21.14;72.62
67457;BME280;54319;52.038;4.640;2023-07-13T10:13:01;101729.75;;;21.42;71.17
67457;BME280;54319;52.038;4.640;2023-07-13T10:15:30;101732.97;;;21.61;68.80
67457;BME280;54319;52.038;4.640;2023-07-13T10:17:56;101728.41;;;21.17;69.00
67457;BME280;54319;52.038;4.640;2023-07-13T10:20:26;101747.44;;;21.03;69.25
67457;BME280;54319;52.038;4.640;2023-07-13T10:22:57;101742.47;;;20.83;67.98
67457;BME280;54319;52.038;4.640;2023-07-13T10:25:26;101736.28;;;20.76;67.79
67457;BME280;54319;52.038;4.640;2023-07-13T10:27:56;101747.59;;;20.91;68.81
67457;BME280;54319;52.038;4.640;2023-07-13T10:30:28;101728.53;;;20.78;68.46
67457;BME280;54319;52.038;4.640;2023-07-13T10:32:57;101752.81;;;20.88;68.13
67457;BME280;54319;52.038;4.640;2023-07-13T10:35:27;101742.66;;;20.99;68.83
67457;BME280;54319;52.038;4.640;2023-07-13T10:37:59;101741.63;;;21.05;65.66
67457;BME280;54319;52.038;4.640;2023-07-13T10:40:35;101747.84;;;21.17;65.24
67457;BME280;54319;52.038;4.640;2023-07-13T10:43:08;101747.59;;;20.91;64.72
67457;BME280;54319;52.038;4.640;2023-07-13T10:45:40;101755.53;;;20.82;67.24
67457;BME280;54319;52.038;4.640;2023-07-13T10:48:09;101759.72;;;20.85;65.99
67457;BME280;54319;52.038;4.640;2023-07-13T10:50:43;101756.44;;;20.88;67.39
67457;BME280;54319;52.038;4.640;2023-07-13T10:53:19;101772.44;;;21.36;65.70
67457;BME280;54319;52.038;4.640;2023-07-13T10:55:58;101783.38;;;21.75;64.93
67457;BME280;54319;52.038;4.640;2023-07-13T10:58:42;101754.84;;;21.85;62.96
67457;BME280;54319;52.038;4.640;2023-07-13T11:01:13;101769.63;;;21.63;60.64
67457;BME280;54319;52.038;4.640;2023-07-13T11:03:47;101770.59;;;21.74;61.43
67457;BME280;54319;52.038;4.640;2023-07-13T11:06:30;101762.47;;;22.00;61.63
67457;BME280;54319;52.038;4.640;2023-07-13T11:09:18;101774.19;;;22.55;57.60
67457;BME280;54319;52.038;4.640;2023-07-13T11:11:45;101738.13;;;22.23;58.03
67457;BME280;54319;52.038;4.640;2023-07-13T11:14:25;101781.47;;;22.19;58.65
67457;BME280;54319;52.038;4.640;2023-07-13T11:16:52;101775.72;;;22.36;60.49
67457;BME280;54319;52.038;4.640;2023-07-13T11:19:40;101775.63;;;22.68;58.86
67457;BME280;54319;52.038;4.640;2023-07-13T11:22:15;101777.13;;;22.97;58.46
67457;BME280;54319;52.038;4.640;2023-07-13T11:25:20;101725.94;;;23.19;55.48
67457;BME280;54319;52.038;4.640;2023-07-13T11:28:03;101765.25;;;23.48;52.60
67457;BME280;54319;52.038;4.640;2023-07-13T11:30:36;101764.91;;;23.13;53.58
67457;BME280;54319;52.038;4.640;2023-07-13T11:33:14;101766.56;;;23.04;53.82
67457;BME280;54319;52.038;4.640;2023-07-13T11:35:46;101779.63;;;23.04;53.89
67457;BME280;54319;52.038;4.640;2023-07-13T11:38:19;101776.53;;;22.90;53.13
67457;BME280;54319;52.038;4.640;2023-07-13T11:40:48;101778.19;;;22.86;52.88
67457;BME280;54319;52.038;4.640;2023-07-13T11:43:16;101775.88;;;22.62;53.75
67457;BME280;54319;52.038;4.640;2023-07-13T11:45:43;101781.28;;;22.36;54.93
67457;BME280;54319;52.038;4.640;2023-07-13T11:48:21;101782.31;;;22.19;56.41
67457;BME280;54319;52.038;4.640;2023-07-13T11:50:54;101790.06;;;22.17;55.28
67457;BME280;54319;52.038;4.640;2023-07-13T11:53:27;101784.84;;;22.31;54.83
67457;BME280;54319;52.038;4.640;2023-07-13T11:55:55;101793.69;;;22.61;54.06
67457;BME280;54319;52.038;4.640;2023-07-13T11:58:24;101776.69;;;22.57;54.13
67457;BME280;54319;52.038;4.640;2023-07-13T12:00:55;101791.28;;;22.37;55.32
67457;BME280;54319;52.038;4.640;2023-07-13T12:03:25;101796.97;;;22.09;55.68
67457;BME280;54319;52.038;4.640;2023-07-13T12:05:56;101785.25;;;22.02;56.41
67457;BME280;54319;52.038;4.640;2023-07-13T12:08:25;101786.34;;;22.01;55.20
67457;BME280;54319;52.038;4.640;2023-07-13T12:11:14;101792.63;;;22.29;57.31
67457;BME280;54319;52.038;4.640;2023-07-13T12:13:41;101792.34;;;22.74;54.81
67457;BME280;54319;52.038;4.640;2023-07-13T12:16:25;101790.50;;;23.05;53.96
67457;BME280;54319;52.038;4.640;2023-07-13T12:18:53;101782.25;;;23.36;53.37
67457;BME280;54319;52.038;4.640;2023-07-13T12:21:27;101784.78;;;23.53;53.64
67457;BME280;54319;52.038;4.640;2023-07-13T12:23:56;101792.22;;;23.27;53.44
67457;BME280;54319;52.038;4.640;2023-07-13T12:26:23;101784.69;;;23.17;53.13
67457;BME280;54319;52.038;4.640;2023-07-13T12:28:52;101781.59;;;23.13;52.58
67457;BME280;54319;52.038;4.640;2023-07-13T12:31:33;101782.22;;;23.26;52.29
67457;BME280;54319;52.038;4.640;2023-07-13T12:34:02;101780.88;;;23.49;53.23
67457;BME280;54319;52.038;4.640;2023-07-13T12:36:33;101783.09;;;23.52;52.41
67457;BME280;54319;52.038;4.640;2023-07-13T12:39:11;101769.72;;;23.70;49.42
67457;BME280;54319;52.038;4.640;2023-07-13T12:41:38;101779.47;;;24.04;49.70
67457;BME280;54319;52.038;4.640;2023-07-13T12:44:10;101759.41;;;24.12;49.54
67457;BME280;54319;52.038;4.640;2023-07-13T12:46:38;101778.63;;;24.13;50.03
67457;BME280;54319;52.038;4.640;2023-07-13T12:49:05;101773.63;;;24.05;49.85
67457;BME280;54319;52.038;4.640;2023-07-13T12:51:33;101770.22;;;24.24;50.52
67457;BME280;54319;52.038;4.640;2023-07-13T12:54:13;101781.69;;;24.12;50.25
67457;BME280;54319;52.038;4.640;2023-07-13T12:56:42;101774.13;;;24.33;48.30